sensor_id;sensor_type;location;lat;lon;timestamp;pressure;altitude;pressure_sealevel;temperature;humidity
47983;BME280;33751;50.816;-1.214;2022-08-23T00:01:04;101263.54;;;19.46;100.00
47983;BME280;33751;50.816;-1.214;2022-08-23T00:03:31;101261.63;;;19.00;100.00
47983;BME280;33751;50.816;-1.214;2022-08-23T00:05:58;101258.37;;;19.20;100.00
47983;BME280;33751;50.816;-1.214;2022-08-23T00:08:25;101259.57;;;19.33;100.00
47983;BME280;33751;50.816;-1.214;2022-08-23T00:10:52;101261.97;;;19.36;100.00
47983;BME280;33751;50.816;-1.214;2022-08-23T00:13:19;101262.09;;;19.02;100.00
47983;BME280;33751;50.816;-1.214;2022-08-23T00:15:46;101260.61;;;19.38;100.00
47983;BME280;33751;50.816;-1.214;2022-08-23T00:18:13;101260.88;;;19.13;100.00
47983;BME280;33751;50.816;-1.214;2022-08-23T00:20:41;101255.84;;;19.02;100.00
47983;BME280;33751;50.816;-1.214;2022-08-23T00:23:08;101251.46;;;19.37;100.00
47983;BME280;33751;50.816;-1.214;2022-08-23T00:25:35;101250.08;;;19.29;100.00
47983;BME280;33751;50.816;-1.214;2022-08-23T00:28:03;101251.31;;;19.12;100.00
47983;BME280;33751;50.816;-1.214;2022-08-23T00:30:30;101247.32;;;19.39;100.00
47983;BME280;33751;50.816;-1.214;2022-08-23T00:32:57;101240.16;;;19.44;100.00
47983;BME280;33751;50.816;-1.214;2022-08-23T00:35:25;101239.71;;;19.02;100.00
47983;BME280;33751;50.816;-1.214;2022-08-23T00:37:51;101244.07;;;19.42;100.00
47983;BME280;33751;50.816;-1.214;2022-08-23T00:40:19;101245.60;;;19.44;100.00
47983;BME280;33751;50.816;-1.214;2022-08-23T00:42:50;101248.05;;;18.99;100.00
47983;BME280;33751;50.816;-1.214;2022-08-23T00:45:22;101246.86;;;19.58;100.00
47983;BME280;33751;50.816;-1.214;2022-08-23T00:47:52;101248.42;;;19.22;100.00
47983;BME280;33751;50.816;-1.214;2022-08-23T00:50:23;101247.36;;;19.58;100.00
47983;BME280;33751;50.816;-1.214;2022-08-23T00:52:57;101247.12;;;19.15;100.00
47983;BME280;33751;50.816;-1.214;2022-08-23T00:55:28;101245.68;;;19.11;100.00
47983;BME280;33751;50.816;-1.214;2022-08-23T00:57:56;101251.53;;;19.69;100.00
47983;BME280;33751;50.816;-1.214;2022-08-23T01:00:23;101252.83;;;19.31;100.00
47983;BME280;33751;50.816;-1.214;2022-08-23T01:02:52;101245.30;;;19.25;100.00
47983;BME280;33751;50.816;-1.214;2022-08-23T01:05:20;101246.47;;;19.04;100.00
47983;BME280;33751;50.816;-1.214;2022-08-23T01:07:52;101251.69;;;19.38;100.00
47983;BME280;33751;50.816;-1.214;2022-08-23T01:10:25;101252.20;;;19.75;100.00
47983;BME280;33751;50.816;-1.214;2022-08-23T01:12:59;101253.90;;;19.46;100.00
47983;BME280;33751;50.816;-1.214;2022-08-23T01:15:32;101252.45;;;19.60;100.00
47983;BME280;33751;50.816;-1.214;2022-08-23T01:18:05;101252.57;;;19.53;100.00
47983;BME280;33751;50.816;-1.214;2022-08-23T01:20:37;101252.72;;;19.65;100.00
47983;BME280;33751;50.816;-1.214;2022-08-23T01:23:15;101255.52;;;19.79;100.00
47983;BME280;33751;50.816;-1.214;2022-08-23T01:25:42;101254.49;;;19.44;100.00
47983;BME280;33751;50.816;-1.214;2022-08-23T01:28:10;101256.85;;;19.71;100.00
47983;BME280;33751;50.816;-1.214;2022-08-23T01:30:37;101261.87;;;19.66;100.00
47983;BME280;33751;50.816;-1.214;2022-08-23T01:33:07;101259.37;;;19.33;100.00
47983;BME280;33751;50.816;-1.214;2022-08-23T01:35:37;101259.55;;;19.70;100.00
47983;BME280;33751;50.816;-1.214;2022-08-23T01:38:06;101258.87;;;19.17;100.00
47983;BME280;33751;50.816;-1.214;2022-08-23T01:40:35;101258.43;;;19.72;100.00
47983;BME280;33751;50.816;-1.214;2022-08-23T01:43:02;101257.75;;;19.14;100.00
47983;BME280;33751;50.816;-1.214;2022-08-23T01:45:30;101254.31;;;19.73;100.00
47983;BME280;33751;50.816;-1.214;2022-08-23T01:47:58;101252.83;;;19.70;100.00
47983;BME280;33751;50.816;-1.214;2022-08-23T01:50:28;101250.76;;;19.34;100.00
47983;BME280;33751;50.816;-1.214;2022-08-23T01:52:55;101248.17;;;19.70;100.00
47983;BME280;33751;50.816;-1.214;2022-08-23T01:55:22;101248.93;;;19.59;100.00
47983;BME280;33751;50.816;-1.214;2022-08-23T01:57:52;101246.80;;;19.62;100.00
47983;BME280;33751;50.816;-1.214;2022-08-23T02:00:22;101249.30;;;19.47;100.00
47983;BME280;33751;50.816;-1.214;2022-08-23T02:02:50;101246.50;;;19.28;100.00
47983;BME280;33751;50.816;-1.214;2022-08-23T02:05:18;101248.85;;;19.27;100.00
47983;BME280;33751;50.816;-1.214;2022-08-23T02:07:46;101252.19;;;19.62;100.00
47983;BME280;33751;50.816;-1.214;2022-08-23T02:10:13;101253.12;;;19.35;100.00
47983;BME280;33751;50.816;-1.214;2022-08-23T02:12:40;101253.76;;;19.33;100.00
47983;BME280;33751;50.816;-1.214;2022-08-23T02:15:08;101251.63;;;19.69;100.00
47983;BME280;33751;50.816;-1.214;2022-08-23T02:17:36;101253.76;;;19.57;100.00
47983;BME280;33751;50.816;-1.214;2022-08-23T02:20:04;101251.91;;;19.44;100.00
47983;BME280;33751;50.816;-1.214;2022-08-23T02:22:31;101252.39;;;19.07;100.00
47983;BME280;33751;50.816;-1.214;2022-08-23T02:24:59;101252.47;;;19.45;100.00
47983;BME280;33751;50.816;-1.214;2022-08-23T02:27:26;101254.44;;;18.97;100.00
47983;BME280;33751;50.816;-1.214;2022-08-23T02:29:53;101254.42;;;19.26;100.00
47983;BME280;33751;50.816;-1.214;2022-08-23T02:32:20;101260.40;;;18.91;100.00
47983;BME280;33751;50.816;-1.214;2022-08-23T02:34:47;101254.28;;;18.98;100.00
47983;BME280;33751;50.816;-1.214;2022-08-23T02:37:14;101256.49;;;19.29;100.00
47983;BME280;33751;50.816;-1.214;2022-08-23T02:39:42;101255.38;;;19.24;100.00
47983;BME280;33751;50.816;-1.214;2022-08-23T02:42:10;101254.31;;;19.24;100.00
47983;BME280;33751;50.816;-1.214;2022-08-23T02:44:38;101254.48;;;19.30;100.00
47983;BME280;33751;50.816;-1.214;2022-08-23T02:47:05;101258.60;;;18.96;100.00
47983;BME280;33751;50.816;-1.214;2022-08-23T02:49:32;101257.33;;;18.68;100.00
47983;BME280;33751;50.816;-1.214;2022-08-23T02:51:58;101260.72;;;19.30;100.00
47983;BME280;33751;50.816;-1.214;2022-08-23T02:54:25;101262.74;;;18.93;100.00
47983;BME280;33751;50.816;-1.214;2022-08-23T02:56:52;101258.67;;;19.35;100.00
47983;BME280;33751;50.816;-1.214;2022-08-23T02:59:20;101259.76;;;19.26;100.00
47983;BME280;33751;50.816;-1.214;2022-08-23T03:01:46;101263.45;;;19.27;100.00
47983;BME280;33751;50.816;-1.214;2022-08-23T03:04:14;101264.54;;;19.22;100.00
47983;BME280;33751;50.816;-1.214;2022-08-23T03:06:40;101261.14;;;19.27;100.00
47983;BME280;33751;50.816;-1.214;2022-08-23T03:09:08;101263.18;;;19.00;100.00
47983;BME280;33751;50.816;-1.214;2022-08-23T03:11:35;101263.45;;;19.17;100.00
47983;BME280;33751;50.816;-1.214;2022-08-23T03:14:03;101264.50;;;19.22;100.00
47983;BME280;33751;50.816;-1.214;2022-08-23T03:16:30;101267.80;;;19.02;100.00
47983;BME280;33751;50.816;-1.214;2022-08-23T03:18:57;101274.58;;;18.88;100.00
47983;BME280;33751;50.816;-1.214;2022-08-23T03:21:24;101272.17;;;19.30;100.00
47983;BME280;33751;50.816;-1.214;2022-08-23T03:23:50;101276.81;;;19.24;100.00
47983;BME280;33751;50.816;-1.214;2022-08-23T03:26:18;101280.19;;;19.47;100.00
47983;BME280;33751;50.816;-1.214;2022-08-23T03:28:45;101280.46;;;19.25;100.00
47983;BME280;33751;50.816;-1.214;2022-08-23T03:31:14;101278.82;;;19.02;100.00
47983;BME280;33751;50.816;-1.214;2022-08-23T03:33:42;101280.16;;;19.17;100.00
47983;BME280;33751;50.816;-1.214;2022-08-23T03:36:10;101280.41;;;19.28;100.00
47983;BME280;33751;50.816;-1.214;2022-08-23T03:38:38;101282.65;;;19.31;100.00
47983;BME280;33751;50.816;-1.214;2022-08-23T03:41:07;101282.10;;;19.36;100.00
47983;BME280;33751;50.816;-1.214;2022-08-23T03:43:34;101286.01;;;19.34;100.00
47983;BME280;33751;50.816;-1.214;2022-08-23T03:46:01;101287.21;;;19.13;100.00
47983;BME280;33751;50.816;-1.214;2022-08-23T03:48:29;101290.62;;;19.34;100.00
47983;BME280;33751;50.816;-1.214;2022-08-23T03:50:56;101294.03;;;19.25;100.00
47983;BME280;33751;50.816;-1.214;2022-08-23T03:53:23;101289.39;;;19.29;100.00
47983;BME280;33751;50.816;-1.214;2022-08-23T03:55:51;101292.09;;;19.23;100.00
47983;BME280;33751;50.816;-1.214;2022-08-23T03:58:19;101293.11;;;19.31;100.00
47983;BME280;33751;50.816;-1.214;2022-08-23T04:00:46;101293.81;;;19.21;100.00
47983;BME280;33751;50.816;-1.214;2022-08-23T04:03:13;101291.26;;;19.24;100.00
47983;BME280;33751;50.816;-1.214;2022-08-23T04:05:40;101289.19;;;19.17;100.00
47983;BME280;33751;50.816;-1.214;2022-08-23T04:08:08;101292.24;;;19.23;100.00
47983;BME280;33751;50.816;-1.214;2022-08-23T04:10:36;101292.90;;;19.37;100.00
47983;BME280;33751;50.816;-1.214;2022-08-23T04:13:02;101294.97;;;19.25;100.00
47983;BME280;33751;50.816;-1.214;2022-08-23T04:15:30;101291.61;;;19.25;100.00
47983;BME280;33751;50.816;-1.214;2022-08-23T04:17:57;101300.00;;;19.23;100.00
47983;BME280;33751;50.816;-1.214;2022-08-23T04:20:24;101301.65;;;19.23;100.00
47983;BME280;33751;50.816;-1.214;2022-08-23T04:22:52;101308.39;;;19.44;100.00
47983;BME280;33751;50.816;-1.214;2022-08-23T04:25:19;101313.70;;;19.26;100.00
47983;BME280;33751;50.816;-1.214;2022-08-23T04:27:46;101314.00;;;19.18;100.00
47983;BME280;33751;50.816;-1.214;2022-08-23T04:30:13;101311.98;;;19.20;100.00
47983;BME280;33751;50.816;-1.214;2022-08-23T04:32:40;101311.70;;;18.99;100.00
47983;BME280;33751;50.816;-1.214;2022-08-23T04:35:07;101311.93;;;19.17;100.00
47983;BME280;33751;50.816;-1.214;2022-08-23T04:37:34;101311.49;;;19.03;100.00
47983;BME280;33751;50.816;-1.214;2022-08-23T04:40:02;101309.53;;;19.31;100.00
47983;BME280;33751;50.816;-1.214;2022-08-23T04:42:29;101312.60;;;18.97;100.00
47983;BME280;33751;50.816;-1.214;2022-08-23T04:44:55;101312.79;;;18.94;100.00
47983;BME280;33751;50.816;-1.214;2022-08-23T04:47:22;101313.89;;;18.73;100.00
47983;BME280;33751;50.816;-1.214;2022-08-23T04:49:49;101315.40;;;19.25;100.00
47983;BME280;33751;50.816;-1.214;2022-08-23T04:52:16;101312.77;;;18.89;100.00
47983;BME280;33751;50.816;-1.214;2022-08-23T04:54:43;101309.97;;;19.14;100.00
47983;BME280;33751;50.816;-1.214;2022-08-23T04:57:10;101310.89;;;19.14;100.00
47983;BME280;33751;50.816;-1.214;2022-08-23T04:59:36;101313.98;;;19.20;100.00
47983;BME280;33751;50.816;-1.214;2022-08-23T05:02:03;101315.04;;;19.30;100.00
47983;BME280;33751;50.816;-1.214;2022-08-23T05:04:30;101313.62;;;19.09;100.00
47983;BME280;33751;50.816;-1.214;2022-08-23T05:06:57;101319.57;;;19.19;100.00
47983;BME280;33751;50.816;-1.214;2022-08-23T05:09:24;101325.15;;;19.16;100.00
47983;BME280;33751;50.816;-1.214;2022-08-23T05:11:51;101326.01;;;19.24;100.00
47983;BME280;33751;50.816;-1.214;2022-08-23T05:14:18;101327.38;;;19.34;100.00
47983;BME280;33751;50.816;-1.214;2022-08-23T05:16:44;101331.75;;;18.91;100.00
47983;BME280;33751;50.816;-1.214;2022-08-23T05:19:11;101330.80;;;19.06;100.00
47983;BME280;33751;50.816;-1.214;2022-08-23T05:21:39;101337.11;;;19.10;100.00
47983;BME280;33751;50.816;-1.214;2022-08-23T05:24:06;101342.06;;;18.98;100.00
47983;BME280;33751;50.816;-1.214;2022-08-23T05:26:33;101352.34;;;18.93;100.00
47983;BME280;33751;50.816;-1.214;2022-08-23T05:29:00;101357.17;;;18.90;100.00
47983;BME280;33751;50.816;-1.214;2022-08-23T05:31:27;101355.42;;;18.91;100.00
47983;BME280;33751;50.816;-1.214;2022-08-23T05:33:54;101353.14;;;19.05;100.00
47983;BME280;33751;50.816;-1.214;2022-08-23T05:36:21;101352.13;;;18.89;100.00
47983;BME280;33751;50.816;-1.214;2022-08-23T05:38:49;101353.34;;;18.99;100.00
47983;BME280;33751;50.816;-1.214;2022-08-23T05:41:16;101351.97;;;19.20;100.00
47983;BME280;33751;50.816;-1.214;2022-08-23T05:43:43;101349.83;;;18.70;100.00
47983;BME280;33751;50.816;-1.214;2022-08-23T05:46:12;101349.75;;;19.18;100.00
47983;BME280;33751;50.816;-1.214;2022-08-23T05:48:41;101346.02;;;19.03;100.00
47983;BME280;33751;50.816;-1.214;2022-08-23T05:51:10;101344.71;;;19.10;100.00
47983;BME280;33751;50.816;-1.214;2022-08-23T05:53:39;101343.14;;;18.94;100.00
47983;BME280;33751;50.816;-1.214;2022-08-23T05:56:10;101343.20;;;18.80;100.00
47983;BME280;33751;50.816;-1.214;2022-08-23T05:58:37;101344.91;;;18.91;100.00
47983;BME280;33751;50.816;-1.214;2022-08-23T06:01:04;101348.75;;;18.74;100.00
47983;BME280;33751;50.816;-1.214;2022-08-23T06:03:31;101357.80;;;18.98;100.00
47983;BME280;33751;50.816;-1.214;2022-08-23T06:06:00;101360.52;;;19.01;100.00
47983;BME280;33751;50.816;-1.214;2022-08-23T06:08:27;101365.63;;;18.89;100.00
47983;BME280;33751;50.816;-1.214;2022-08-23T06:11:00;101361.16;;;19.13;100.00
47983;BME280;33751;50.816;-1.214;2022-08-23T06:13:27;101361.75;;;19.23;100.00
47983;BME280;33751;50.816;-1.214;2022-08-23T06:15:55;101366.02;;;19.10;100.00
47983;BME280;33751;50.816;-1.214;2022-08-23T06:18:22;101361.78;;;19.32;100.00
47983;BME280;33751;50.816;-1.214;2022-08-23T06:20:58;101362.08;;;19.30;100.00
47983;BME280;33751;50.816;-1.214;2022-08-23T06:23:25;101361.49;;;19.39;100.00
47983;BME280;33751;50.816;-1.214;2022-08-23T06:25:52;101361.62;;;19.34;100.00
47983;BME280;33751;50.816;-1.214;2022-08-23T06:28:19;101358.91;;;19.10;100.00
47983;BME280;33751;50.816;-1.214;2022-08-23T06:30:45;101358.83;;;19.01;100.00
47983;BME280;33751;50.816;-1.214;2022-08-23T06:33:13;101361.19;;;19.53;100.00
47983;BME280;33751;50.816;-1.214;2022-08-23T06:35:40;101360.55;;;19.40;100.00
47983;BME280;33751;50.816;-1.214;2022-08-23T06:38:07;101361.49;;;19.37;100.00
47983;BME280;33751;50.816;-1.214;2022-08-23T06:40:34;101363.23;;;19.29;100.00
47983;BME280;33751;50.816;-1.214;2022-08-23T06:43:01;101363.27;;;19.35;100.00
47983;BME280;33751;50.816;-1.214;2022-08-23T06:45:27;101363.24;;;19.09;100.00
47983;BME280;33751;50.816;-1.214;2022-08-23T06:47:55;101363.84;;;19.07;100.00
47983;BME280;33751;50.816;-1.214;2022-08-23T06:50:21;101368.24;;;19.59;100.00
47983;BME280;33751;50.816;-1.214;2022-08-23T06:52:48;101369.53;;;19.32;100.00
47983;BME280;33751;50.816;-1.214;2022-08-23T06:55:16;101368.36;;;19.47;100.00
47983;BME280;33751;50.816;-1.214;2022-08-23T06:57:43;101368.22;;;19.75;100.00
47983;BME280;33751;50.816;-1.214;2022-08-23T07:00:11;101364.76;;;19.46;100.00
47983;BME280;33751;50.816;-1.214;2022-08-23T07:02:38;101368.48;;;19.65;100.00
47983;BME280;33751;50.816;-1.214;2022-08-23T07:05:05;101374.85;;;19.44;100.00
47983;BME280;33751;50.816;-1.214;2022-08-23T07:07:32;101375.35;;;19.40;100.00
47983;BME280;33751;50.816;-1.214;2022-08-23T07:09:59;101377.40;;;19.44;100.00
47983;BME280;33751;50.816;-1.214;2022-08-23T07:12:26;101379.15;;;19.34;100.00
47983;BME280;33751;50.816;-1.214;2022-08-23T07:14:53;101380.43;;;19.28;100.00
47983;BME280;33751;50.816;-1.214;2022-08-23T07:17:20;101377.97;;;19.12;100.00
47983;BME280;33751;50.816;-1.214;2022-08-23T07:19:47;101375.97;;;19.20;100.00
47983;BME280;33751;50.816;-1.214;2022-08-23T07:22:14;101374.71;;;19.34;100.00
47983;BME280;33751;50.816;-1.214;2022-08-23T07:24:41;101377.41;;;19.78;100.00
47983;BME280;33751;50.816;-1.214;2022-08-23T07:27:08;101383.16;;;19.34;100.00
47983;BME280;33751;50.816;-1.214;2022-08-23T07:29:36;101384.03;;;19.70;100.00
47983;BME280;33751;50.816;-1.214;2022-08-23T07:32:04;101384.85;;;19.21;100.00
47983;BME280;33751;50.816;-1.214;2022-08-23T07:34:31;101385.56;;;19.72;100.00
47983;BME280;33751;50.816;-1.214;2022-08-23T07:36:59;101386.90;;;19.49;100.00
47983;BME280;33751;50.816;-1.214;2022-08-23T07:39:26;101391.19;;;19.58;100.00
47983;BME280;33751;50.816;-1.214;2022-08-23T07:41:53;101393.15;;;19.70;100.00
47983;BME280;33751;50.816;-1.214;2022-08-23T07:44:20;101394.69;;;19.62;100.00
47983;BME280;33751;50.816;-1.214;2022-08-23T07:46:47;101400.78;;;19.54;100.00
47983;BME280;33751;50.816;-1.214;2022-08-23T07:49:15;101404.99;;;19.61;100.00
47983;BME280;33751;50.816;-1.214;2022-08-23T07:51:48;101404.73;;;19.77;100.00
47983;BME280;33751;50.816;-1.214;2022-08-23T07:54:16;101408.75;;;20.02;100.00
47983;BME280;33751;50.816;-1.214;2022-08-23T07:56:44;101410.57;;;20.03;100.00
47983;BME280;33751;50.816;-1.214;2022-08-23T07:59:11;101413.79;;;20.01;100.00
47983;BME280;33751;50.816;-1.214;2022-08-23T08:01:41;101414.28;;;19.68;100.00
47983;BME280;33751;50.816;-1.214;2022-08-23T08:04:08;101415.10;;;19.83;100.00
47983;BME280;33751;50.816;-1.214;2022-08-23T08:06:38;101416.45;;;19.72;100.00
47983;BME280;33751;50.816;-1.214;2022-08-23T08:09:07;101419.15;;;19.81;100.00
47983;BME280;33751;50.816;-1.214;2022-08-23T08:11:34;101417.53;;;19.94;100.00
47983;BME280;33751;50.816;-1.214;2022-08-23T08:14:04;101421.47;;;20.13;100.00
47983;BME280;33751;50.816;-1.214;2022-08-23T08:16:34;101419.89;;;20.02;100.00
47983;BME280;33751;50.816;-1.214;2022-08-23T08:19:04;101420.67;;;20.05;100.00
47983;BME280;33751;50.816;-1.214;2022-08-23T08:21:32;101421.14;;;20.11;100.00
47983;BME280;33751;50.816;-1.214;2022-08-23T08:23:59;101420.86;;;19.94;100.00
47983;BME280;33751;50.816;-1.214;2022-08-23T08:26:27;101426.96;;;20.21;100.00
47983;BME280;33751;50.816;-1.214;2022-08-23T08:28:54;101427.73;;;20.11;100.00
47983;BME280;33751;50.816;-1.214;2022-08-23T08:31:22;101432.06;;;20.06;100.00
47983;BME280;33751;50.816;-1.214;2022-08-23T08:33:48;101435.38;;;20.22;100.00
47983;BME280;33751;50.816;-1.214;2022-08-23T08:36:36;101436.22;;;20.00;100.00
47983;BME280;33751;50.816;-1.214;2022-08-23T08:39:06;101438.31;;;19.96;100.00
47983;BME280;33751;50.816;-1.214;2022-08-23T08:41:45;101437.43;;;19.92;100.00
47983;BME280;33751;50.816;-1.214;2022-08-23T08:44:21;101441.89;;;20.21;100.00
47983;BME280;33751;50.816;-1.214;2022-08-23T08:46:51;101444.11;;;20.12;100.00
47983;BME280;33751;50.816;-1.214;2022-08-23T08:49:28;101446.08;;;19.89;100.00
47983;BME280;33751;50.816;-1.214;2022-08-23T08:52:00;101445.93;;;20.09;100.00
47983;BME280;33751;50.816;-1.214;2022-08-23T08:54:28;101448.62;;;19.86;100.00
47983;BME280;33751;50.816;-1.214;2022-08-23T08:56:59;101448.57;;;19.95;100.00
47983;BME280;33751;50.816;-1.214;2022-08-23T08:59:32;101447.67;;;20.16;100.00
47983;BME280;33751;50.816;-1.214;2022-08-23T09:02:05;101446.55;;;19.87;100.00
47983;BME280;33751;50.816;-1.214;2022-08-23T09:04:33;101445.58;;;20.04;100.00
47983;BME280;33751;50.816;-1.214;2022-08-23T09:07:08;101444.94;;;20.06;100.00
47983;BME280;33751;50.816;-1.214;2022-08-23T09:09:52;101445.46;;;20.03;100.00
47983;BME280;33751;50.816;-1.214;2022-08-23T09:12:26;101448.33;;;20.35;100.00
47983;BME280;33751;50.816;-1.214;2022-08-23T09:15:05;101447.51;;;20.25;100.00
47983;BME280;33751;50.816;-1.214;2022-08-23T09:17:42;101443.22;;;20.24;100.00
47983;BME280;33751;50.816;-1.214;2022-08-23T09:20:13;101448.50;;;20.28;100.00
47983;BME280;33751;50.816;-1.214;2022-08-23T09:22:43;101448.47;;;20.43;100.00
47983;BME280;33751;50.816;-1.214;2022-08-23T09:25:13;101448.14;;;20.69;100.00
47983;BME280;33751;50.816;-1.214;2022-08-23T09:27:42;101447.52;;;21.09;100.00
47983;BME280;33751;50.816;-1.214;2022-08-23T09:30:11;101448.17;;;20.89;100.00
47983;BME280;33751;50.816;-1.214;2022-08-23T09:32:41;101445.67;;;21.19;100.00
47983;BME280;33751;50.816;-1.214;2022-08-23T09:35:13;101447.17;;;21.15;100.00
47983;BME280;33751;50.816;-1.214;2022-08-23T09:37:48;101443.47;;;20.63;100.00
47983;BME280;33751;50.816;-1.214;2022-08-23T09:40:19;101442.79;;;20.99;100.00
47983;BME280;33751;50.816;-1.214;2022-08-23T09:43:02;101443.53;;;20.77;100.00
47983;BME280;33751;50.816;-1.214;2022-08-23T09:45:32;101440.93;;;20.67;100.00
47983;BME280;33751;50.816;-1.214;2022-08-23T09:47:59;101441.05;;;20.52;100.00
47983;BME280;33751;50.816;-1.214;2022-08-23T09:50:29;101434.78;;;21.05;100.00
47983;BME280;33751;50.816;-1.214;2022-08-23T09:52:59;101431.09;;;20.80;100.00
47983;BME280;33751;50.816;-1.214;2022-08-23T09:55:32;101429.31;;;20.65;100.00
47983;BME280;33751;50.816;-1.214;2022-08-23T09:58:02;101424.39;;;20.69;100.00
47983;BME280;33751;50.816;-1.214;2022-08-23T10:00:32;101424.23;;;20.67;100.00
47983;BME280;33751;50.816;-1.214;2022-08-23T10:03:20;101425.15;;;20.98;100.00
47983;BME280;33751;50.816;-1.214;2022-08-23T10:05:51;101421.32;;;21.07;100.00
47983;BME280;33751;50.816;-1.214;2022-08-23T10:08:26;101420.24;;;20.97;100.00
47983;BME280;33751;50.816;-1.214;2022-08-23T10:10:57;101420.69;;;20.96;100.00
47983;BME280;33751;50.816;-1.214;2022-08-23T10:13:27;101421.37;;;20.97;100.00
47983;BME280;33751;50.816;-1.214;2022-08-23T10:16:02;101420.08;;;21.12;100.00
47983;BME280;33751;50.816;-1.214;2022-08-23T10:18:43;101420.55;;;20.89;100.00
47983;BME280;33751;50.816;-1.214;2022-08-23T10:21:18;101421.34;;;21.13;100.00
47983;BME280;33751;50.816;-1.214;2022-08-23T10:23:58;101424.59;;;21.01;100.00
47983;BME280;33751;50.816;-1.214;2022-08-23T10:26:34;101426.30;;;21.35;100.00
47983;BME280;33751;50.816;-1.214;2022-08-23T10:29:10;101426.95;;;21.16;100.00
47983;BME280;33751;50.816;-1.214;2022-08-23T10:31:45;101426.14;;;21.20;100.00
47983;BME280;33751;50.816;-1.214;2022-08-23T10:34:29;101427.49;;;21.27;100.00
47983;BME280;33751;50.816;-1.214;2022-08-23T10:37:10;101428.38;;;21.24;100.00
47983;BME280;33751;50.816;-1.214;2022-08-23T10:39:44;101426.67;;;21.55;100.00
47983;BME280;33751;50.816;-1.214;2022-08-23T10:42:24;101424.77;;;21.47;100.00
47983;BME280;33751;50.816;-1.214;2022-08-23T10:44:57;101427.09;;;21.48;100.00
47983;BME280;33751;50.816;-1.214;2022-08-23T10:47:32;101428.67;;;21.41;100.00
47983;BME280;33751;50.816;-1.214;2022-08-23T10:50:04;101427.37;;;21.42;100.00
47983;BME280;33751;50.816;-1.214;2022-08-23T10:52:37;101425.80;;;21.37;100.00
47983;BME280;33751;50.816;-1.214;2022-08-23T10:55:09;101426.67;;;21.46;100.00
47983;BME280;33751;50.816;-1.214;2022-08-23T10:57:41;101427.75;;;21.73;100.00
47983;BME280;33751;50.816;-1.214;2022-08-23T11:00:14;101433.61;;;21.71;100.00
47983;BME280;33751;50.816;-1.214;2022-08-23T11:02:48;101433.79;;;21.46;100.00
47983;BME280;33751;50.816;-1.214;2022-08-23T11:05:22;101434.26;;;21.66;100.00
47983;BME280;33751;50.816;-1.214;2022-08-23T11:08:00;101437.71;;;21.58;100.00
47983;BME280;33751;50.816;-1.214;2022-08-23T11:10:40;101437.81;;;21.59;100.00
47983;BME280;33751;50.816;-1.214;2022-08-23T11:13:19;101440.51;;;21.50;100.00
47983;BME280;33751;50.816;-1.214;2022-08-23T11:15:56;101441.50;;;21.69;100.00
47983;BME280;33751;50.816;-1.214;2022-08-23T11:18:42;101443.51;;;21.46;100.00
47983;BME280;33751;50.816;-1.214;2022-08-23T11:21:41;101441.65;;;21.98;100.00
47983;BME280;33751;50.816;-1.214;2022-08-23T11:24:32;101441.56;;;22.19;100.00
47983;BME280;33751;50.816;-1.214;2022-08-23T11:27:02;101446.56;;;22.10;100.00
47983;BME280;33751;50.816;-1.214;2022-08-23T11:29:35;101450.00;;;21.73;100.00
47983;BME280;33751;50.816;-1.214;2022-08-23T11:32:23;101450.25;;;22.14;100.00
47983;BME280;33751;50.816;-1.214;2022-08-23T11:35:01;101451.23;;;21.63;100.00
47983;BME280;33751;50.816;-1.214;2022-08-23T11:37:48;101453.00;;;22.29;100.00
47983;BME280;33751;50.816;-1.214;2022-08-23T11:40:37;101454.87;;;21.69;100.00
47983;BME280;33751;50.816;-1.214;2022-08-23T11:43:08;101454.96;;;21.77;100.00
47983;BME280;33751;50.816;-1.214;2022-08-23T11:45:43;101453.56;;;22.28;100.00
47983;BME280;33751;50.816;-1.214;2022-08-23T11:48:15;101452.31;;;21.99;100.00
47983;BME280;33751;50.816;-1.214;2022-08-23T11:50:58;101447.13;;;22.38;100.00
47983;BME280;33751;50.816;-1.214;2022-08-23T11:53:40;101451.92;;;22.55;100.00
47983;BME280;33751;50.816;-1.214;2022-08-23T11:56:30;101448.95;;;22.46;100.00
47983;BME280;33751;50.816;-1.214;2022-08-23T11:59:15;101452.13;;;22.72;100.00
47983;BME280;33751;50.816;-1.214;2022-08-23T12:01:48;101453.44;;;23.27;100.00
47983;BME280;33751;50.816;-1.214;2022-08-23T12:04:31;101455.32;;;23.96;100.00
47983;BME280;33751;50.816;-1.214;2022-08-23T12:06:59;101455.79;;;23.81;100.00
47983;BME280;33751;50.816;-1.214;2022-08-23T12:09:58;101458.30;;;24.10;100.00
47983;BME280;33751;50.816;-1.214;2022-08-23T12:12:32;101460.51;;;23.59;100.00
47983;BME280;33751;50.816;-1.214;2022-08-23T12:15:03;101462.13;;;23.28;100.00
47983;BME280;33751;50.816;-1.214;2022-08-23T12:18:12;101462.76;;;23.91;100.00
47983;BME280;33751;50.816;-1.214;2022-08-23T12:20:41;101461.99;;;23.72;100.00
47983;BME280;33751;50.816;-1.214;2022-08-23T12:23:14;101462.20;;;23.42;100.00
47983;BME280;33751;50.816;-1.214;2022-08-23T12:25:41;101460.30;;;23.70;100.00
47983;BME280;33751;50.816;-1.214;2022-08-23T12:28:20;101452.97;;;23.94;100.00
47983;BME280;33751;50.816;-1.214;2022-08-23T12:30:56;101453.75;;;24.20;100.00
47983;BME280;33751;50.816;-1.214;2022-08-23T12:33:33;101455.11;;;24.66;100.00
47983;BME280;33751;50.816;-1.214;2022-08-23T12:36:09;101450.71;;;24.87;100.00
47983;BME280;33751;50.816;-1.214;2022-08-23T12:38:51;101451.86;;;24.68;100.00
47983;BME280;33751;50.816;-1.214;2022-08-23T12:41:24;101450.33;;;25.05;100.00
47983;BME280;33751;50.816;-1.214;2022-08-23T12:43:56;101451.10;;;25.15;100.00
47983;BME280;33751;50.816;-1.214;2022-08-23T12:46:36;101453.26;;;24.88;100.00